Time;durP1;ratioP1;P1;durP2;ratioP2;P2;SDS_P1;SDS_P2;PMS_P1;PMS_P2;Temp;Humidity;BMP_temperature;BMP_pressure;BME280_temperature;BME280_humidity;BME280_pressure;Samples;Min_cycle;Max_cycle;Signal;HPM_P1;HPM_P2
2023/08/07 00:02:12;;;;;;;13.82;12.68;;;17.80;99.90;;;;;;5012570;28;20403;-73
2023/08/07 00:04:38;;;;;;;16.25;14.75;;;17.90;99.90;;;;;;5013771;28;20033;-73
2023/08/07 00:07:04;;;;;;;12.00;10.38;;;17.90;99.90;;;;;;5013431;28;20045;-73
2023/08/07 00:09:31;;;;;;;13.98;11.48;;;18.00;99.90;;;;;;5012205;28;20034;-74
2023/08/07 00:11:57;;;;;;;12.40;10.52;;;18.10;99.90;;;;;;5013556;28;20034;-73
2023/08/07 00:14:23;;;;;;;12.52;11.52;;;18.20;99.90;;;;;;5013755;28;20048;-73
2023/08/07 00:16:49;;;;;;;10.93;9.95;;;18.20;99.90;;;;;;5011732;28;20399;-73
2023/08/07 00:19:15;;;;;;;11.50;10.38;;;18.20;99.90;;;;;;5013529;28;20030;-73
2023/08/07 00:21:42;;;;;;;12.90;11.75;;;18.20;99.90;;;;;;5013243;28;20135;-73
2023/08/07 00:24:08;;;;;;;15.70;14.40;;;18.10;99.90;;;;;;5013585;28;20037;-73
2023/08/07 00:26:34;;;;;;;11.23;9.98;;;18.10;99.90;;;;;;5013162;28;20034;-73
2023/08/07 00:29:00;;;;;;;9.50;8.50;;;18.10;99.90;;;;;;5013400;28;20045;-74
2023/08/07 00:31:26;;;;;;;12.38;10.50;;;18.10;99.90;;;;;;5012551;28;20037;-73
2023/08/07 00:33:54;;;;;;;17.30;15.80;;;18.10;99.90;;;;;;5012142;28;20037;-73
2023/08/07 00:36:20;;;;;;;8.73;7.82;;;18.10;99.90;;;;;;5012840;28;20485;-73
2023/08/07 00:38:46;;;;;;;12.73;8.55;;;18.10;99.90;;;;;;5013205;28;20033;-73
2023/08/07 00:41:12;;;;;;;9.82;8.80;;;18.00;99.90;;;;;;5011843;28;20053;-72
2023/08/07 00:43:38;;;;;;;12.90;10.05;;;18.00;99.90;;;;;;5013059;28;20044;-73
2023/08/07 00:46:05;;;;;;;12.35;8.98;;;18.00;99.90;;;;;;5012469;28;20053;-73
2023/08/07 00:48:31;;;;;;;8.30;7.22;;;18.10;99.90;;;;;;5012993;28;20038;-73
2023/08/07 00:50:57;;;;;;;11.23;10.18;;;18.00;99.90;;;;;;4999380;28;20407;-73
2023/08/07 00:53:23;;;;;;;9.88;8.95;;;18.00;99.90;;;;;;5011868;28;20030;-73
2023/08/07 00:55:49;;;;;;;8.27;6.63;;;17.90;99.90;;;;;;5011589;28;20026;-73
2023/08/07 00:58:16;;;;;;;9.55;7.05;;;17.80;99.90;;;;;;5012906;28;20356;-73
2023/08/07 01:00:42;;;;;;;12.02;10.93;;;17.80;99.90;;;;;;4994772;28;20042;-73
2023/08/07 01:03:08;;;;;;;14.38;10.57;;;17.80;99.90;;;;;;5012959;28;20026;-74
2023/08/07 01:05:34;;;;;;;15.13;13.55;;;17.80;99.90;;;;;;5010989;28;20030;-73
2023/08/07 01:08:01;;;;;;;11.90;10.70;;;17.70;99.90;;;;;;5012735;28;20086;-73
2023/08/07 01:10:49;;;;;;;13.40;12.18;;;17.80;99.90;;;;;;5012952;28;20034;-73
2023/08/07 01:13:34;;;;;;;20.35;18.95;;;17.70;99.90;;;;;;5011861;28;20053;-73
2023/08/07 01:16:07;;;;;;;11.13;6.78;;;17.70;99.90;;;;;;5011858;28;20042;-73
2023/08/07 01:18:34;;;;;;;8.43;7.03;;;17.70;99.90;;;;;;4995124;28;20403;-72
2023/08/07 01:21:00;;;;;;;9.98;6.82;;;17.60;99.90;;;;;;5012104;28;20390;-73
2023/08/07 01:23:26;;;;;;;10.95;9.30;;;17.50;99.90;;;;;;4995214;28;20046;-73
2023/08/07 01:25:52;;;;;;;13.32;12.18;;;17.60;99.90;;;;;;5012349;28;20022;-73
2023/08/07 01:28:38;;;;;;;9.38;6.22;;;17.60;99.90;;;;;;5012550;28;20042;-73
2023/08/07 01:31:06;;;;;;;9.80;7.55;;;17.70;99.90;;;;;;5010654;28;20505;-73
2023/08/07 01:34:00;;;;;;;10.30;9.27;;;17.70;99.90;;;;;;5012554;28;20394;-73
2023/08/07 01:36:28;;;;;;;10.93;9.88;;;17.70;99.90;;;;;;5000521;28;20401;-74
2023/08/07 01:38:55;;;;;;;11.05;6.97;;;17.60;99.90;;;;;;5011161;28;20043;-73
2023/08/07 01:41:21;;;;;;;10.65;7.05;;;17.60;99.90;;;;;;5010984;28;20045;-73
2023/08/07 01:43:47;;;;;;;7.85;6.00;;;17.50;99.90;;;;;;5011359;28;20045;-74
2023/08/07 01:46:13;;;;;;;10.68;8.88;;;17.50;99.90;;;;;;5011636;28;20038;-73
2023/08/07 01:48:40;;;;;;;11.88;10.68;;;17.40;99.90;;;;;;5011072;28;20071;-73
2023/08/07 01:51:06;;;;;;;11.40;10.40;;;17.30;99.90;;;;;;5011645;28;20391;-73
2023/08/07 01:53:32;;;;;;;21.80;20.23;;;17.30;99.90;;;;;;5012361;28;20037;-73
2023/08/07 01:55:58;;;;;;;15.65;14.48;;;17.30;99.90;;;;;;5010861;28;20490;-73
2023/08/07 01:58:24;;;;;;;14.23;12.95;;;17.20;99.90;;;;;;5010544;28;20029;-74
2023/08/07 02:00:50;;;;;;;7.40;6.38;;;17.10;99.90;;;;;;5008439;28;20041;-73
2023/08/07 02:03:16;;;;;;;8.55;6.13;;;17.10;99.90;;;;;;5005347;28;20490;-73
2023/08/07 02:05:48;;;;;;;7.72;6.88;;;17.20;99.90;;;;;;5010621;28;20049;-73
2023/08/07 02:08:14;;;;;;;10.43;6.55;;;17.20;99.90;;;;;;5009321;28;20049;-73
2023/08/07 02:10:40;;;;;;;10.90;8.13;;;17.20;99.90;;;;;;4993344;28;20041;-73
2023/08/07 02:13:06;;;;;;;8.85;7.22;;;17.10;99.90;;;;;;5009771;28;20053;-74
2023/08/07 02:15:32;;;;;;;8.65;6.80;;;17.10;99.90;;;;;;5008864;28;20065;-73
2023/08/07 02:17:58;;;;;;;12.55;6.13;;;17.10;99.90;;;;;;5009059;28;20034;-73
2023/08/07 02:20:24;;;;;;;9.30;6.72;;;17.10;99.90;;;;;;5009341;28;20030;-74
2023/08/07 02:22:50;;;;;;;9.75;8.73;;;17.00;99.90;;;;;;5010754;28;20045;-73
2023/08/07 02:25:17;;;;;;;8.55;6.47;;;17.00;99.90;;;;;;5013538;28;20455;-73
2023/08/07 02:27:43;;;;;;;10.10;6.40;;;17.00;99.90;;;;;;5014369;28;20052;-73
2023/08/07 02:30:09;;;;;;;8.57;7.57;;;17.00;99.90;;;;;;5013562;28;20025;-73
2023/08/07 02:32:35;;;;;;;10.75;5.57;;;16.90;99.90;;;;;;5012840;28;20040;-73
2023/08/07 02:35:02;;;;;;;7.78;5.32;;;16.90;99.90;;;;;;5013168;28;20034;-73
2023/08/07 02:37:28;;;;;;;8.48;5.65;;;16.90;99.90;;;;;;5013549;28;20460;-73
2023/08/07 02:39:54;;;;;;;7.82;5.55;;;16.90;99.90;;;;;;5015514;28;20038;-73
2023/08/07 02:42:20;;;;;;;9.32;5.65;;;16.90;99.90;;;;;;5013977;28;20041;-73
2023/08/07 02:44:46;;;;;;;8.52;5.80;;;16.80;99.90;;;;;;5014326;28;20037;-73
2023/08/07 02:47:12;;;;;;;7.82;7.03;;;16.80;99.90;;;;;;5012788;28;20038;-73
2023/08/07 02:49:38;;;;;;;7.72;6.60;;;16.80;99.90;;;;;;5015237;28;20041;-73
2023/08/07 02:52:04;;;;;;;7.88;6.43;;;16.70;99.90;;;;;;5014589;28;20509;-73
2023/08/07 02:54:31;;;;;;;13.25;11.68;;;16.60;99.90;;;;;;5015159;28;20391;-72
2023/08/07 02:56:57;;;;;;;19.55;17.98;;;16.60;99.90;;;;;;5014776;28;20030;-73
2023/08/07 02:59:23;;;;;;;16.65;15.20;;;16.60;99.90;;;;;;5013827;28;20041;-73
2023/08/07 03:01:49;;;;;;;25.65;23.45;;;16.70;99.90;;;;;;5014018;28;20057;-73
2023/08/07 03:04:16;;;;;;;11.90;6.75;;;16.60;99.90;;;;;;5013626;28;20029;-73
2023/08/07 03:06:42;;;;;;;26.23;24.25;;;16.50;99.90;;;;;;5014636;28;20037;-73
2023/08/07 03:09:08;;;;;;;19.25;17.75;;;16.50;99.90;;;;;;5013610;28;20046;-73
2023/08/07 03:11:34;;;;;;;22.13;20.35;;;16.50;99.90;;;;;;5014525;28;20041;-73
2023/08/07 03:14:00;;;;;;;13.43;12.45;;;16.40;99.90;;;;;;5013739;28;20025;-73
2023/08/07 03:16:26;;;;;;;20.02;18.25;;;16.40;99.90;;;;;;5013604;28;20414;-73
2023/08/07 03:18:52;;;;;;;12.43;8.90;;;16.40;99.90;;;;;;5014571;28;20033;-74
2023/08/07 03:21:18;;;;;;;13.57;11.27;;;16.30;99.90;;;;;;5013322;28;20471;-73
2023/08/07 03:23:44;;;;;;;20.90;19.20;;;16.30;99.90;;;;;;5015240;28;20038;-73
2023/08/07 03:26:11;;;;;;;10.98;8.15;;;16.40;99.90;;;;;;5014295;28;20042;-73
2023/08/07 03:28:37;;;;;;;9.35;7.68;;;16.30;99.90;;;;;;5014361;28;20034;-73
2023/08/07 03:31:05;;;;;;;9.15;8.35;;;16.30;99.90;;;;;;5013534;28;20041;-73
2023/08/07 03:33:31;;;;;;;12.85;11.77;;;16.30;99.90;;;;;;5014512;28;20034;-73
2023/08/07 03:35:57;;;;;;;11.68;10.20;;;16.30;99.90;;;;;;5013162;28;20566;-73
2023/08/07 03:38:23;;;;;;;15.00;13.50;;;16.30;99.90;;;;;;5014776;28;20368;-73
2023/08/07 03:40:49;;;;;;;12.02;10.90;;;16.30;99.90;;;;;;5014065;28;20034;-73
2023/08/07 03:43:15;;;;;;;10.38;8.73;;;16.30;99.90;;;;;;5014035;28;20078;-73
2023/08/07 03:45:41;;;;;;;11.85;8.90;;;16.20;99.90;;;;;;5013307;28;20403;-73
2023/08/07 03:48:07;;;;;;;10.48;7.97;;;16.20;99.90;;;;;;5013940;28;20041;-74
2023/08/07 03:50:37;;;;;;;9.55;8.70;;;16.20;99.90;;;;;;5013225;28;20507;-72
2023/08/07 03:53:07;;;;;;;13.77;11.00;;;16.10;99.90;;;;;;4997036;28;20049;-73
2023/08/07 03:55:33;;;;;;;16.95;15.27;;;16.10;99.90;;;;;;5012640;28;20044;-73
2023/08/07 03:57:59;;;;;;;18.65;17.05;;;16.10;99.90;;;;;;5012870;28;20069;-73
2023/08/07 04:00:25;;;;;;;15.23;13.90;;;16.00;99.90;;;;;;5012963;28;20041;-73
2023/08/07 04:02:51;;;;;;;13.02;11.80;;;16.00;99.90;;;;;;5014129;28;20064;-73
2023/08/07 04:05:17;;;;;;;23.83;22.45;;;16.00;99.90;;;;;;5012051;28;20049;-72
2023/08/07 04:07:44;;;;;;;14.07;12.90;;;16.00;99.90;;;;;;5013702;28;20041;-73
2023/08/07 04:10:10;;;;;;;19.25;18.05;;;16.00;99.90;;;;;;5013578;28;20042;-73
2023/08/07 04:12:36;;;;;;;15.05;11.38;;;16.00;99.90;;;;;;5012506;28;20118;-73
2023/08/07 04:15:02;;;;;;;10.80;7.97;;;16.00;99.90;;;;;;5012933;28;20042;-72
2023/08/07 04:17:28;;;;;;;14.20;13.07;;;16.00;99.90;;;;;;5013179;28;20037;-73
2023/08/07 04:19:54;;;;;;;14.00;13.00;;;15.90;99.90;;;;;;5013595;28;20376;-73
2023/08/07 04:22:21;;;;;;;11.73;10.52;;;15.90;99.90;;;;;;5012042;28;20034;-73
2023/08/07 04:24:47;;;;;;;10.27;8.82;;;15.80;99.90;;;;;;5013517;28;20459;-73
2023/08/07 04:27:13;;;;;;;11.45;10.43;;;15.80;99.90;;;;;;5013106;28;20093;-72
2023/08/07 04:29:39;;;;;;;12.45;11.43;;;15.70;99.90;;;;;;5013005;28;20041;-73
2023/08/07 04:32:06;;;;;;;17.98;15.35;;;15.70;99.90;;;;;;5011790;28;20030;-73
2023/08/07 04:34:32;;;;;;;11.48;10.23;;;15.70;99.90;;;;;;5013379;28;20045;-73
2023/08/07 04:36:58;;;;;;;12.15;9.85;;;15.70;99.90;;;;;;5011542;28;20494;-73
2023/08/07 04:39:24;;;;;;;12.82;11.70;;;15.70;99.90;;;;;;5013239;28;20034;-72
2023/08/07 04:41:50;;;;;;;11.10;9.25;;;15.80;99.90;;;;;;5011846;28;20357;-73
2023/08/07 04:44:16;;;;;;;13.02;10.13;;;15.70;99.90;;;;;;5012720;28;20037;-73
2023/08/07 04:46:42;;;;;;;10.02;8.45;;;15.60;99.90;;;;;;5012216;28;20038;-73
2023/08/07 04:49:08;;;;;;;9.30;7.70;;;15.60;99.90;;;;;;5013083;28;20034;-73
2023/08/07 04:51:35;;;;;;;11.68;7.30;;;15.60;99.90;;;;;;5011329;28;20046;-73
2023/08/07 04:54:01;;;;;;;7.78;6.80;;;15.60;99.90;;;;;;5011890;28;20034;-73
2023/08/07 04:56:27;;;;;;;11.85;6.25;;;15.60;99.90;;;;;;5012664;28;20036;-73
2023/08/07 04:58:53;;;;;;;7.55;6.32;;;15.60;99.90;;;;;;5012576;28;20060;-73
2023/08/07 05:01:20;;;;;;;9.38;6.88;;;15.50;99.90;;;;;;5012044;28;20033;-73
2023/08/07 05:03:46;;;;;;;12.27;7.68;;;15.60;99.90;;;;;;5011833;28;20037;-73
2023/08/07 05:06:12;;;;;;;11.65;10.55;;;15.60;99.90;;;;;;5012539;28;20053;-74
2023/08/07 05:08:39;;;;;;;11.90;10.65;;;15.50;99.90;;;;;;5012662;28;20049;-73
2023/08/07 05:11:05;;;;;;;11.48;10.60;;;15.60;99.90;;;;;;5011341;28;20022;-73
2023/08/07 05:13:31;;;;;;;13.77;11.93;;;15.70;99.90;;;;;;5012420;28;20034;-73
2023/08/07 05:15:57;;;;;;;12.00;10.80;;;15.60;99.90;;;;;;5010916;28;20060;-73
2023/08/07 05:18:23;;;;;;;9.98;8.55;;;15.60;99.90;;;;;;5009597;28;20038;-73
2023/08/07 05:20:49;;;;;;;10.70;9.70;;;15.60;99.90;;;;;;5011087;28;20372;-73
2023/08/07 05:23:15;;;;;;;8.77;7.88;;;15.60;99.90;;;;;;5012527;28;20041;-73
2023/08/07 05:25:41;;;;;;;11.43;9.13;;;15.60;99.90;;;;;;5012341;28;20490;-73
2023/08/07 05:28:07;;;;;;;10.95;6.95;;;15.60;99.90;;;;;;5010913;28;20042;-73
2023/08/07 05:30:33;;;;;;;10.52;6.40;;;15.70;99.90;;;;;;5011878;28;20049;-72
2023/08/07 05:32:59;;;;;;;10.68;7.00;;;15.80;99.90;;;;;;5012425;28;20041;-73
2023/08/07 05:35:25;;;;;;;11.63;7.53;;;15.80;99.90;;;;;;5010695;28;20042;-73
2023/08/07 05:37:51;;;;;;;9.25;7.57;;;16.00;99.90;;;;;;5011208;28;20041;-72
2023/08/07 05:40:18;;;;;;;9.10;8.23;;;16.10;99.90;;;;;;5012125;28;20383;-73
2023/08/07 05:42:44;;;;;;;14.23;13.07;;;16.30;99.90;;;;;;5012274;28;20033;-73
2023/08/07 05:45:10;;;;;;;31.83;30.05;;;16.40;99.90;;;;;;5011775;28;20041;-73
2023/08/07 05:47:36;;;;;;;13.77;12.68;;;16.60;99.90;;;;;;5012383;28;20038;-73
2023/08/07 05:50:03;;;;;;;9.85;8.90;;;16.80;99.90;;;;;;5010925;28;20041;-74
2023/08/07 05:52:29;;;;;;;10.00;9.00;;;17.00;99.90;;;;;;5010809;28;20042;-74
2023/08/07 05:54:55;;;;;;;10.32;9.30;;;17.10;99.90;;;;;;5012377;28;20435;-73
2023/08/07 05:57:21;;;;;;;12.15;10.85;;;17.30;99.90;;;;;;5011718;28;20034;-73
2023/08/07 05:59:47;;;;;;;12.32;11.20;;;17.50;99.90;;;;;;5013808;28;20043;-73
2023/08/07 06:02:13;;;;;;;12.88;11.68;;;17.60;99.90;;;;;;5014243;28;20049;-73
2023/08/07 06:04:40;;;;;;;16.30;15.00;;;17.80;99.90;;;;;;5014987;28;20030;-73
2023/08/07 06:07:07;;;;;;;15.70;13.63;;;17.90;99.90;;;;;;5015753;28;20387;-74
2023/08/07 06:09:33;;;;;;;15.55;14.25;;;18.10;99.90;;;;;;5015970;28;20041;-73
2023/08/07 06:11:59;;;;;;;15.20;14.05;;;18.20;99.90;;;;;;5015721;28;20045;-73
2023/08/07 06:14:25;;;;;;;19.35;17.70;;;18.30;99.90;;;;;;5015017;28;20407;-73
2023/08/07 06:16:52;;;;;;;20.73;19.23;;;18.50;99.90;;;;;;5015419;28;20041;-72
2023/08/07 06:19:19;;;;;;;22.13;20.10;;;18.60;99.90;;;;;;5015909;28;20033;-73
2023/08/07 06:21:45;;;;;;;19.83;18.27;;;18.70;99.90;;;;;;5015701;28;20029;-73
2023/08/07 06:24:12;;;;;;;22.17;20.65;;;18.70;99.90;;;;;;5015681;28;20030;-73
2023/08/07 06:26:38;;;;;;;21.70;20.08;;;18.80;99.90;;;;;;5014033;28;20374;-74
2023/08/07 06:29:04;;;;;;;22.27;20.67;;;18.90;99.90;;;;;;5014561;28;20044;-73
2023/08/07 06:31:30;;;;;;;25.02;23.42;;;19.00;99.90;;;;;;5013396;28;20033;-74
2023/08/07 06:33:56;;;;;;;26.48;24.77;;;19.10;99.90;;;;;;4997809;28;20395;-73
2023/08/07 06:36:22;;;;;;;26.90;25.13;;;19.20;99.90;;;;;;5014011;28;20038;-73
2023/08/07 06:38:48;;;;;;;31.17;28.92;;;19.30;99.90;;;;;;5015070;28;20474;-73
2023/08/07 06:41:14;;;;;;;29.42;27.42;;;19.20;99.90;;;;;;5015179;28;20030;-74
2023/08/07 06:43:41;;;;;;;28.85;26.85;;;19.30;99.90;;;;;;5014295;28;20479;-73
2023/08/07 06:46:07;;;;;;;24.40;22.50;;;19.30;99.90;;;;;;5014694;28;20038;-73
2023/08/07 06:48:33;;;;;;;29.13;27.13;;;19.40;99.90;;;;;;5015207;28;20037;-73
2023/08/07 06:50:59;;;;;;;27.77;25.77;;;19.60;99.90;;;;;;5014926;28;20064;-74
2023/08/07 06:53:26;;;;;;;35.55;33.33;;;19.70;99.90;;;;;;5013227;28;20033;-73
2023/08/07 06:55:52;;;;;;;25.92;23.92;;;19.90;99.90;;;;;;5014955;28;20026;-73
2023/08/07 06:58:18;;;;;;;37.45;34.60;;;20.00;99.90;;;;;;5014974;28;20034;-74
2023/08/07 07:00:44;;;;;;;32.47;30.48;;;20.20;99.90;;;;;;5013177;28;20042;-73
2023/08/07 07:03:10;;;;;;;29.13;27.20;;;20.30;99.90;;;;;;5015034;28;20378;-74
2023/08/07 07:05:36;;;;;;;38.55;36.13;;;20.50;99.90;;;;;;5013676;28;20037;-73
2023/08/07 07:08:02;;;;;;;32.13;29.88;;;20.70;99.90;;;;;;5013336;28;20026;-73
2023/08/07 07:10:29;;;;;;;41.83;39.38;;;20.80;99.90;;;;;;5013467;28;20383;-74
2023/08/07 07:12:55;;;;;;;56.85;53.55;;;20.90;99.90;;;;;;5013640;28;20053;-75
2023/08/07 07:15:21;;;;;;;48.88;46.05;;;20.90;99.90;;;;;;5014134;28;20037;-73
2023/08/07 07:17:47;;;;;;;47.80;44.83;;;21.00;99.90;;;;;;5013581;28;20471;-73
2023/08/07 07:20:13;;;;;;;37.45;35.05;;;21.10;99.90;;;;;;5014281;28;20041;-74
2023/08/07 07:22:39;;;;;;;34.97;32.28;;;21.20;99.90;;;;;;5014486;28;20478;-73
2023/08/07 07:25:06;;;;;;;45.83;42.70;;;21.30;99.90;;;;;;5014484;28;20030;-73
2023/08/07 07:27:32;;;;;;;34.70;32.33;;;21.50;99.90;;;;;;5012468;28;20399;-73
2023/08/07 07:29:58;;;;;;;47.10;44.38;;;21.60;99.90;;;;;;5013322;28;20038;-73
2023/08/07 07:32:26;;;;;;;46.25;43.28;;;21.80;99.90;;;;;;5013669;28;20038;-74
2023/08/07 07:34:52;;;;;;;42.70;40.20;;;22.00;99.90;;;;;;5014316;28;20029;-73
2023/08/07 07:37:18;;;;;;;44.88;41.95;;;22.20;99.90;;;;;;5012439;28;20517;-73
2023/08/07 07:39:44;;;;;;;50.17;46.95;;;22.10;99.90;;;;;;5014414;28;20049;-73
2023/08/07 07:42:10;;;;;;;46.67;43.97;;;22.00;99.90;;;;;;5014024;28;20037;-73
2023/08/07 07:44:36;;;;;;;39.90;37.45;;;22.10;99.90;;;;;;5014214;28;20495;-73
2023/08/07 07:47:02;;;;;;;44.20;41.58;;;22.30;99.90;;;;;;5012369;28;20038;-73
2023/08/07 07:49:28;;;;;;;43.38;40.83;;;22.50;99.90;;;;;;5012732;28;20026;-74
2023/08/07 07:51:54;;;;;;;50.72;47.50;;;22.60;99.90;;;;;;5013310;28;20061;-73
2023/08/07 07:54:21;;;;;;;47.90;44.83;;;22.40;99.90;;;;;;5012980;28;20479;-73
2023/08/07 07:56:47;;;;;;;50.83;47.63;;;22.50;99.90;;;;;;5012307;28;20040;-73
2023/08/07 07:59:13;;;;;;;53.05;49.78;;;22.40;99.90;;;;;;5013827;28;20368;-73
2023/08/07 08:01:39;;;;;;;49.80;46.95;;;22.30;99.90;;;;;;5013289;28;20509;-74
2023/08/07 08:04:06;;;;;;;55.75;52.45;;;22.50;99.90;;;;;;5013795;28;20026;-73
2023/08/07 08:06:32;;;;;;;47.80;45.10;;;22.60;99.90;;;;;;5012117;28;20034;-73
2023/08/07 08:08:59;;;;;;;66.18;62.28;;;22.60;99.90;;;;;;5012610;28;20034;-73
2023/08/07 08:11:25;;;;;;;67.47;63.60;;;22.10;99.90;;;;;;5013680;28;20037;-73
2023/08/07 08:13:51;;;;;;;66.55;62.85;;;22.10;99.90;;;;;;5012674;28;20384;-73
2023/08/07 08:16:17;;;;;;;60.83;57.45;;;22.20;99.90;;;;;;5011417;28;20034;-73
2023/08/07 08:18:43;;;;;;;68.53;64.63;;;22.30;99.90;;;;;;5013568;28;20034;-74
2023/08/07 08:21:09;;;;;;;76.65;72.57;;;22.50;99.90;;;;;;5012515;28;20026;-74
2023/08/07 08:23:35;;;;;;;86.88;82.15;;;22.90;99.90;;;;;;5013509;28;20037;-74
2023/08/07 08:26:01;;;;;;;86.65;81.93;;;23.10;99.90;;;;;;5013010;28;20033;-73
2023/08/07 08:28:27;;;;;;;83.22;78.45;;;23.10;99.90;;;;;;5012064;28;20049;-74
2023/08/07 08:30:54;;;;;;;77.40;73.10;;;23.10;99.90;;;;;;5012845;28;20042;-73
2023/08/07 08:33:20;;;;;;;81.60;77.22;;;22.90;99.90;;;;;;5013313;28;20025;-73
2023/08/07 08:35:46;;;;;;;86.32;81.85;;;22.80;99.90;;;;;;5012846;28;20439;-73
2023/08/07 08:38:12;;;;;;;97.78;92.57;;;23.00;99.90;;;;;;5013150;28;20037;-73
2023/08/07 08:40:38;;;;;;;112.72;107.10;;;23.30;99.90;;;;;;5011668;28;20026;-73
2023/08/07 08:43:05;;;;;;;111.70;106.15;;;23.10;99.90;;;;;;5013389;28;20034;-74
2023/08/07 08:45:37;;;;;;;143.30;135.93;;;23.20;99.90;;;;;;5011231;28;20038;-74
2023/08/07 08:48:04;;;;;;;129.77;123.07;;;23.10;99.90;;;;;;5011403;28;20044;-73
2023/08/07 08:50:30;;;;;;;140.38;133.20;;;23.00;99.90;;;;;;5011094;28;20072;-74
2023/08/07 08:52:56;;;;;;;113.47;107.70;;;23.20;99.90;;;;;;5011844;28;20029;-74
2023/08/07 08:55:23;;;;;;;142.60;135.30;;;23.60;99.90;;;;;;5012753;28;20051;-73
2023/08/07 08:57:53;;;;;;;113.40;107.50;;;23.90;99.90;;;;;;5012916;28;20459;-74
2023/08/07 09:00:22;;;;;;;122.53;116.25;;;24.30;99.90;;;;;;4995010;28;20037;-73
2023/08/07 09:02:49;;;;;;;151.07;143.35;;;24.60;99.90;;;;;;5011747;28;20034;-75
2023/08/07 09:05:16;;;;;;;93.90;88.72;;;24.80;99.90;;;;;;5011117;28;20029;-73
2023/08/07 09:07:42;;;;;;;107.53;101.70;;;25.00;99.90;;;;;;5011839;28;20386;-74
2023/08/07 09:10:11;;;;;;;95.85;90.93;;;25.30;99.90;;;;;;5011570;28;20038;-74
2023/08/07 09:12:40;;;;;;;122.38;116.18;;;25.40;99.90;;;;;;5011708;28;20030;-74
2023/08/07 09:15:07;;;;;;;145.82;138.38;;;25.50;99.90;;;;;;5011280;28;20033;-74
2023/08/07 09:17:39;;;;;;;134.40;127.68;;;25.40;99.90;;;;;;5010935;28;20037;-74
2023/08/07 09:20:10;;;;;;;143.38;136.13;;;25.40;99.90;;;;;;5011168;28;20036;-74
2023/08/07 09:22:36;;;;;;;;;;;25.30;99.90;;;;;;5011812;28;20033;-73
2023/08/07 09:25:03;;;;;;;147.55;139.93;;;25.30;99.90;;;;;;5012575;28;19909;-74
2023/08/07 09:27:31;;;;;;;192.48;182.93;;;25.40;99.90;;;;;;5012108;28;20457;-74
2023/08/07 09:29:58;;;;;;;167.57;159.25;;;25.40;99.90;;;;;;5011318;28;20037;-74
2023/08/07 09:32:24;;;;;;;155.13;147.05;;;25.10;99.90;;;;;;5011825;28;20424;-74
2023/08/07 09:34:51;;;;;;;148.23;140.65;;;24.90;99.90;;;;;;5011570;28;20034;-74
2023/08/07 09:37:17;;;;;;;132.43;125.75;;;25.10;99.90;;;;;;5010907;28;20041;-74
2023/08/07 09:39:43;;;;;;;161.23;153.18;;;25.30;99.90;;;;;;5012631;28;20026;-74
2023/08/07 09:42:14;;;;;;;159.43;151.27;;;25.40;99.90;;;;;;5012111;28;20022;-74
2023/08/07 09:44:40;;;;;;;148.35;140.52;;;25.50;99.90;;;;;;5011248;28;20030;-74
2023/08/07 09:47:16;;;;;;;117.57;111.70;;;25.60;99.90;;;;;;5010409;28;20041;-74
2023/08/07 09:49:43;;;;;;;113.45;107.53;;;24.70;99.90;;;;;;5011332;28;20041;-74
2023/08/07 09:52:10;;;;;;;146.90;139.65;;;23.80;99.90;;;;;;5010690;28;20042;-74
2023/08/07 09:54:36;;;;;;;114.40;108.70;;;23.70;99.90;;;;;;5011230;28;20026;-73
2023/08/07 09:57:03;;;;;;;172.77;164.25;;;23.50;99.90;;;;;;5010917;28;20041;-74
2023/08/07 09:59:29;;;;;;;109.65;104.03;;;23.50;99.90;;;;;;5011030;28;20057;-73
2023/08/07 10:01:55;;;;;;;151.13;143.57;;;23.50;99.90;;;;;;5010955;28;20046;-73
2023/08/07 10:04:22;;;;;;;138.13;131.35;;;23.20;99.90;;;;;;5012258;28;20026;-74
2023/08/07 10:06:48;;;;;;;132.85;126.47;;;23.00;99.90;;;;;;5011808;28;20364;-74
2023/08/07 10:09:14;;;;;;;137.20;130.63;;;22.90;99.90;;;;;;5011020;28;20041;-74
2023/08/07 10:11:41;;;;;;;206.70;197.00;;;22.80;99.90;;;;;;5010498;28;20030;-74
2023/08/07 10:14:08;;;;;;;130.88;124.47;;;22.90;99.90;;;;;;5012060;28;20375;-73
2023/08/07 10:16:39;;;;;;;122.22;116.32;;;22.90;99.90;;;;;;5009693;28;20030;-73
2023/08/07 10:19:06;;;;;;;171.05;162.73;;;22.90;99.90;;;;;;5011084;28;20038;-74
2023/08/07 10:21:34;;;;;;;146.88;139.55;;;23.00;99.90;;;;;;5010513;28;20418;-74
2023/08/07 10:24:01;;;;;;;151.57;143.98;;;23.40;99.90;;;;;;5010867;28;20030;-74
2023/08/07 10:26:27;;;;;;;122.88;116.85;;;23.50;99.90;;;;;;5010564;28;20030;-73
2023/08/07 10:28:53;;;;;;;110.47;104.93;;;23.90;99.90;;;;;;5010696;28;20097;-74
2023/08/07 10:31:20;;;;;;;104.55;99.32;;;24.30;99.90;;;;;;5010789;28;20403;-74
2023/08/07 10:33:47;;;;;;;111.35;105.82;;;24.60;99.90;;;;;;5010523;28;20419;-74
2023/08/07 10:36:15;;;;;;;135.27;128.25;;;24.70;99.90;;;;;;4993929;28;20064;-74
2023/08/07 10:38:41;;;;;;;125.65;119.53;;;25.00;99.90;;;;;;5010743;28;20029;-73
2023/08/07 10:41:10;;;;;;;145.13;138.10;;;25.00;99.90;;;;;;5010472;28;20026;-74
2023/08/07 10:43:47;;;;;;;163.13;155.27;;;25.00;99.90;;;;;;4994591;28;20391;-74
2023/08/07 10:46:19;;;;;;;175.80;167.32;;;24.90;99.90;;;;;;5012729;28;20037;-74
2023/08/07 10:48:49;;;;;;;175.73;167.23;;;24.60;99.90;;;;;;5014104;28;20041;-74
2023/08/07 10:51:17;;;;;;;149.87;142.40;;;24.60;99.90;;;;;;5013560;28;20518;-73
2023/08/07 10:53:47;;;;;;;150.27;142.90;;;24.50;99.60;;;;;;5015377;28;20018;-74
2023/08/07 10:56:36;;;;;;;167.45;159.18;;;24.30;99.60;;;;;;5013747;28;20034;-74
2023/08/07 10:59:10;;;;;;;136.90;130.13;;;24.30;99.90;;;;;;5014259;28;20038;-73
2023/08/07 11:01:38;;;;;;;138.65;131.73;;;24.20;99.90;;;;;;5014090;28;20034;-74
2023/08/07 11:04:09;;;;;;;142.23;135.23;;;24.30;99.90;;;;;;5015025;28;20094;-74
2023/08/07 11:06:36;;;;;;;163.30;155.40;;;24.10;99.70;;;;;;5013461;28;20036;-74
2023/08/07 11:09:04;;;;;;;158.85;151.05;;;24.30;99.40;;;;;;5013739;28;20840;-74
2023/08/07 11:12:00;;;;;;;171.05;162.57;;;24.60;99.50;;;;;;5013324;28;20041;-74
2023/08/07 11:14:26;;;;;;;189.25;180.23;;;24.90;99.50;;;;;;5004841;28;20045;-73
2023/08/07 11:16:52;;;;;;;153.98;146.45;;;24.90;98.80;;;;;;5013879;28;20045;-74
2023/08/07 11:19:19;;;;;;;168.15;159.85;;;24.70;98.90;;;;;;5013416;28;20033;-73
2023/08/07 11:21:45;;;;;;;223.48;212.85;;;24.80;99.00;;;;;;5014692;28;20038;-74
2023/08/07 11:24:15;;;;;;;228.18;217.35;;;24.90;97.90;;;;;;5013467;28;20040;-74
2023/08/07 11:26:44;;;;;;;231.77;220.82;;;25.00;98.30;;;;;;5013016;28;20498;-74
2023/08/07 11:29:11;;;;;;;215.48;205.18;;;25.00;97.00;;;;;;4996855;28;20034;-74
2023/08/07 11:31:37;;;;;;;198.10;188.57;;;24.90;97.40;;;;;;5013671;28;20041;-74
2023/08/07 11:34:03;;;;;;;208.63;198.57;;;24.80;97.80;;;;;;5013115;28;20042;-74
2023/08/07 11:36:29;;;;;;;254.05;242.02;;;24.80;97.60;;;;;;4996658;28;20407;-74
2023/08/07 11:38:55;;;;;;;311.85;296.98;;;25.00;96.60;;;;;;5013218;28;20044;-74
2023/08/07 11:41:21;;;;;;;277.30;263.98;;;24.70;94.90;;;;;;5013966;28;20021;-73
2023/08/07 11:43:48;;;;;;;225.32;214.65;;;24.30;94.60;;;;;;5014118;28;20033;-73
2023/08/07 11:46:14;;;;;;;209.57;199.38;;;23.80;95.50;;;;;;5013478;28;20030;-74
2023/08/07 11:48:41;;;;;;;163.40;155.43;;;23.80;95.30;;;;;;5013070;28;20026;-74
2023/08/07 11:51:07;;;;;;;190.90;181.48;;;24.00;97.00;;;;;;5012478;28;20034;-74
2023/08/07 11:53:35;;;;;;;279.77;266.52;;;24.40;97.60;;;;;;5013005;28;20455;-74
2023/08/07 11:56:03;;;;;;;277.23;264.08;;;24.60;95.60;;;;;;5011921;28;20022;-74
2023/08/07 11:58:56;;;;;;;316.08;300.75;;;24.90;96.00;;;;;;5012434;28;20033;-74
2023/08/07 12:01:24;;;;;;;236.68;225.27;;;25.40;95.70;;;;;;5010336;28;20038;-74
2023/08/07 12:03:57;;;;;;;1999.90;999.90;;;25.70;96.70;;;;;;5012832;28;20037;-74
2023/08/07 12:06:24;;;;;;;387.33;367.50;;;26.00;95.00;;;;;;5013563;28;20021;-74
2023/08/07 12:08:52;;;;;;;421.70;400.15;;;26.10;94.80;;;;;;5012518;28;20037;-74
2023/08/07 12:11:20;;;;;;;324.75;308.92;;;25.80;93.40;;;;;;5013382;28;20037;-74
2023/08/07 12:13:46;;;;;;;316.05;300.83;;;25.40;94.40;;;;;;5012263;28;20029;-74
2023/08/07 12:16:16;;;;;;;196.68;187.18;;;25.20;94.20;;;;;;5012885;28;20057;-74
2023/08/07 12:18:48;;;;;;;229.02;218.02;;;25.10;95.80;;;;;;5012451;28;20026;-74
2023/08/07 12:21:23;;;;;;;265.30;252.65;;;25.20;95.90;;;;;;5012361;28;20421;-74
2023/08/07 12:23:50;;;;;;;243.07;231.52;;;25.20;94.70;;;;;;5012426;28;20038;-74
2023/08/07 12:26:16;;;;;;;224.70;214.02;;;25.00;94.40;;;;;;5012039;28;20395;-74